createdAt,value
2023-02-22T00:01:04.078Z,11.80
2023-02-22T00:03:31.921Z,11.80
2023-02-22T00:06:07.108Z,11.90
2023-02-22T00:08:36.564Z,11.90
2023-02-22T00:11:14.300Z,12.00
2023-02-22T00:13:41.653Z,12.00
2023-02-22T00:16:08.752Z,12.00
2023-02-22T00:18:42.132Z,11.90
2023-02-22T00:21:09.145Z,11.70
2023-02-22T00:23:43.074Z,11.60
2023-02-22T00:26:10.191Z,11.50
2023-02-22T00:28:44.076Z,11.50
2023-02-22T00:31:11.177Z,11.60
2023-02-22T00:33:39.616Z,11.70
2023-02-22T00:36:14.096Z,11.70
2023-02-22T00:38:41.695Z,11.70
2023-02-22T00:41:09.446Z,11.60
2023-02-22T00:43:43.096Z,11.60
2023-02-22T00:46:17.117Z,11.70
2023-02-22T00:48:51.010Z,11.80
2023-02-22T00:51:18.263Z,11.90
2023-02-22T00:53:52.052Z,11.90
2023-02-22T00:56:19.065Z,11.90
2023-02-22T00:58:53.077Z,11.70
2023-02-22T01:01:20.110Z,11.60
2023-02-22T01:03:54.079Z,11.50
2023-02-22T01:06:21.146Z,11.50
2023-02-22T01:08:48.509Z,11.50
2023-02-22T01:11:23.080Z,11.50
2023-02-22T01:13:50.174Z,11.50
2023-02-22T01:16:24.146Z,11.70
2023-02-22T01:18:51.191Z,11.70
2023-02-22T01:21:25.163Z,11.80
2023-02-22T01:23:59.130Z,11.80
2023-02-22T01:26:26.216Z,11.80
2023-02-22T01:29:00.129Z,11.80
2023-02-22T01:31:27.239Z,12.00
2023-02-22T01:33:54.232Z,11.80
2023-02-22T01:36:28.132Z,11.80
2023-02-22T01:38:55.188Z,11.80
2023-02-22T01:41:29.180Z,11.80
2023-02-22T01:43:56.207Z,11.80
2023-02-22T01:46:32.158Z,11.90
2023-02-22T01:49:11.151Z,12.00
2023-02-22T01:51:42.514Z,12.10
2023-02-22T01:54:40.155Z,12.10
2023-02-22T01:57:23.636Z,11.90
2023-02-22T02:00:00.122Z,11.80
2023-02-22T02:02:27.591Z,11.60
2023-02-22T02:05:01.147Z,11.60
2023-02-22T02:07:28.094Z,11.50
2023-02-22T02:10:06.077Z,11.50
2023-02-22T02:12:34.970Z,11.50
2023-02-22T02:15:30.050Z,11.50
2023-02-22T02:18:09.555Z,11.50
2023-02-22T02:20:58.101Z,11.50
2023-02-22T02:24:18.201Z,11.40
2023-02-22T02:27:06.134Z,11.50
2023-02-22T02:29:54.060Z,11.60
2023-02-22T02:32:49.065Z,11.70
2023-02-22T02:35:43.531Z,11.70
2023-02-22T02:38:40.204Z,11.70
2023-02-22T02:41:36.397Z,11.60
2023-02-22T02:44:15.159Z,11.60
2023-02-22T02:46:51.233Z,11.50
2023-02-22T02:49:37.181Z,11.50
2023-02-22T02:52:04.632Z,11.60
2023-02-22T02:54:31.723Z,11.70
2023-02-22T02:57:05.211Z,11.80
2023-02-22T02:59:34.956Z,11.80
2023-02-22T03:02:33.171Z,11.80
2023-02-22T03:06:01.675Z,12.00
2023-02-22T03:08:56.166Z,12.10
2023-02-22T03:11:40.136Z,12.00
2023-02-22T03:14:48.860Z,11.90
2023-02-22T03:17:39.139Z,12.00
2023-02-22T03:20:46.195Z,12.00
2023-02-22T03:23:40.105Z,12.00
2023-02-22T03:26:21.253Z,12.10
2023-02-22T03:28:48.256Z,12.10
2023-02-22T03:31:35.238Z,12.10
2023-02-22T03:34:22.236Z,12.10
2023-02-22T03:36:54.671Z,12.10
2023-02-22T03:39:21.651Z,12.20
2023-02-22T03:41:56.142Z,12.10
2023-02-22T03:44:32.169Z,11.80
2023-02-22T03:47:09.131Z,11.60
2023-02-22T03:49:45.351Z,11.50
2023-02-22T03:52:19.172Z,11.40
2023-02-22T03:54:46.226Z,11.20
2023-02-22T03:57:38.179Z,11.10
2023-02-22T04:00:10.690Z,11.00
2023-02-22T04:02:44.287Z,11.00
2023-02-22T04:05:11.371Z,11.10
2023-02-22T04:07:51.192Z,11.00
2023-02-22T04:10:18.372Z,11.10
2023-02-22T04:12:45.248Z,11.00
2023-02-22T04:15:22.199Z,11.00
2023-02-22T04:17:49.193Z,11.00
2023-02-22T04:20:23.174Z,11.00
2023-02-22T04:22:57.201Z,11.00
2023-02-22T04:25:24.519Z,11.00
2023-02-22T04:27:58.275Z,11.00
2023-02-22T04:30:25.301Z,11.10
2023-02-22T04:32:59.169Z,11.10
2023-02-22T04:35:26.169Z,11.10
2023-02-22T04:37:59.211Z,11.10
2023-02-22T04:40:33.186Z,11.00
2023-02-22T04:43:00.218Z,10.90
2023-02-22T04:45:27.309Z,10.90
2023-02-22T04:48:01.172Z,10.80
2023-02-22T04:50:28.198Z,10.80
2023-02-22T04:53:02.323Z,10.80
2023-02-22T04:55:29.302Z,10.80
2023-02-22T04:58:03.335Z,10.80
2023-02-22T05:00:30.305Z,10.80
2023-02-22T05:03:04.190Z,10.80
2023-02-22T05:05:31.088Z,10.90
2023-02-22T05:08:04.189Z,10.90
2023-02-22T05:10:31.284Z,10.90
2023-02-22T05:12:58.256Z,10.90
2023-02-22T05:15:32.193Z,10.90
2023-02-22T05:17:59.273Z,10.90
2023-02-22T05:20:41.213Z,10.80
2023-02-22T05:23:08.292Z,10.90
2023-02-22T05:25:35.277Z,10.90
2023-02-22T05:28:12.237Z,10.80
2023-02-22T05:30:39.501Z,10.80
2023-02-22T05:33:13.301Z,10.90
2023-02-22T05:35:40.474Z,10.90
2023-02-22T05:38:14.368Z,11.00
2023-02-22T05:40:48.269Z,10.90
2023-02-22T05:43:15.347Z,10.90
2023-02-22T05:45:49.334Z,10.90
2023-02-22T05:48:23.256Z,10.90
2023-02-22T05:50:50.233Z,10.80
2023-02-22T05:53:24.224Z,10.80
2023-02-22T05:55:51.751Z,10.70
2023-02-22T05:58:25.297Z,10.80
2023-02-22T06:00:52.401Z,10.80
2023-02-22T06:03:19.393Z,10.80
2023-02-22T06:05:53.304Z,10.80
2023-02-22T06:08:20.309Z,10.80
2023-02-22T06:10:54.221Z,10.80
2023-02-22T06:13:21.130Z,10.70
2023-02-22T06:15:54.327Z,10.80
2023-02-22T06:18:21.336Z,10.80
2023-02-22T06:20:55.252Z,10.90
2023-02-22T06:23:22.251Z,10.90
2023-02-22T06:25:56.238Z,11.00
2023-02-22T06:28:29.245Z,11.10
2023-02-22T06:31:02.370Z,11.10
2023-02-22T06:33:29.497Z,11.10
2023-02-22T06:36:03.205Z,11.20
2023-02-22T06:38:30.142Z,11.30
2023-02-22T06:40:57.145Z,11.10
2023-02-22T06:43:31.261Z,11.10
2023-02-22T06:45:58.227Z,11.10
2023-02-22T06:48:25.251Z,11.10
2023-02-22T06:50:59.198Z,11.20
2023-02-22T06:53:26.221Z,11.20
2023-02-22T06:56:00.209Z,11.20
2023-02-22T06:58:27.214Z,11.20
2023-02-22T07:01:01.352Z,11.30
2023-02-22T07:03:28.323Z,11.20
2023-02-22T07:05:55.235Z,11.20
2023-02-22T07:08:28.260Z,11.30
2023-02-22T07:10:55.364Z,11.30
2023-02-22T07:13:22.438Z,11.20
2023-02-22T07:15:56.286Z,11.20
2023-02-22T07:18:30.995Z,11.10
2023-02-22T07:21:04.268Z,11.10
2023-02-22T07:23:31.368Z,11.10
2023-02-22T07:26:07.267Z,11.20
2023-02-22T07:28:34.250Z,11.20
2023-02-22T07:31:01.188Z,11.20
2023-02-22T07:33:34.326Z,11.20
2023-02-22T07:36:01.263Z,11.30
2023-02-22T07:38:34.272Z,11.40
2023-02-22T07:41:01.301Z,11.60
2023-02-22T07:43:35.262Z,11.70
2023-02-22T07:46:02.485Z,11.60
2023-02-22T07:48:37.296Z,11.60
2023-02-22T07:51:04.737Z,11.50
2023-02-22T07:53:38.327Z,11.50
2023-02-22T07:56:12.297Z,11.50
2023-02-22T07:58:39.356Z,11.50
2023-02-22T08:01:06.394Z,11.50
2023-02-22T08:03:41.364Z,11.50
2023-02-22T08:06:08.617Z,11.50
2023-02-22T08:08:35.640Z,11.60
2023-02-22T08:11:09.307Z,11.60
2023-02-22T08:13:36.412Z,11.70
2023-02-22T08:16:10.321Z,11.70
2023-02-22T08:18:37.419Z,11.70
2023-02-22T08:21:04.666Z,11.70
2023-02-22T08:23:38.367Z,11.80
2023-02-22T08:26:11.252Z,11.80
2023-02-22T08:28:44.318Z,11.90
2023-02-22T08:31:11.286Z,12.00
2023-02-22T08:33:38.375Z,12.10
2023-02-22T08:36:12.360Z,12.20
2023-02-22T08:38:39.412Z,12.30
2023-02-22T08:41:13.372Z,12.40
2023-02-22T08:43:40.342Z,12.60
2023-02-22T08:46:07.292Z,12.40
2023-02-22T08:48:40.401Z,12.30
2023-02-22T08:51:14.511Z,12.20
2023-02-22T08:53:48.358Z,12.20
2023-02-22T08:56:15.355Z,12.20
2023-02-22T08:58:49.362Z,12.30
2023-02-22T09:01:32.872Z,12.30
2023-02-22T09:04:00.578Z,12.50
2023-02-22T09:06:34.351Z,12.40
2023-02-22T09:09:01.730Z,12.40
2023-02-22T09:11:35.397Z,12.40
2023-02-22T09:14:10.353Z,12.40
2023-02-22T09:16:44.490Z,12.40
2023-02-22T09:19:18.148Z,12.50
2023-02-22T09:21:51.365Z,12.70
2023-02-22T09:24:18.485Z,12.70
2023-02-22T09:26:47.513Z,12.80
2023-02-22T09:29:21.404Z,12.80
2023-02-22T09:31:49.040Z,12.90
2023-02-22T09:34:22.444Z,12.90
2023-02-22T09:36:49.918Z,12.90
2023-02-22T09:39:24.523Z,12.90
2023-02-22T09:42:06.775Z,13.00
2023-02-22T09:44:58.400Z,13.10
2023-02-22T09:47:38.511Z,13.10
2023-02-22T09:50:25.399Z,13.10
2023-02-22T09:53:32.232Z,13.10
2023-02-22T09:56:11.470Z,13.00
2023-02-22T09:58:53.909Z,12.90
2023-02-22T10:01:48.407Z,13.00
2023-02-22T10:04:47.879Z,13.10
2023-02-22T10:07:48.384Z,13.20
2023-02-22T10:10:25.369Z,13.20
2023-02-22T10:13:16.331Z,13.20
2023-02-22T10:15:53.446Z,13.20
2023-02-22T10:18:57.481Z,13.30
2023-02-22T10:21:55.862Z,13.30
2023-02-22T10:24:41.443Z,13.50
2023-02-22T10:27:27.296Z,13.60
2023-02-22T10:30:34.284Z,13.60
2023-02-22T10:33:36.384Z,13.60
2023-02-22T10:36:03.711Z,13.60
2023-02-22T10:38:40.421Z,13.50
2023-02-22T10:41:10.642Z,13.50
2023-02-22T10:43:47.478Z,13.50
2023-02-22T10:46:23.449Z,13.50
2023-02-22T10:48:57.865Z,13.50
2023-02-22T10:51:31.457Z,13.50
2023-02-22T10:54:21.494Z,13.50
2023-02-22T10:56:57.442Z,13.50
2023-02-22T10:59:36.009Z,13.60
2023-02-22T11:02:31.579Z,13.70
2023-02-22T11:05:00.521Z,13.60
2023-02-22T11:07:30.863Z,13.70
2023-02-22T11:10:14.431Z,13.70
2023-02-22T11:12:42.042Z,13.70
2023-02-22T11:15:24.504Z,13.70
2023-02-22T11:17:52.726Z,13.70
2023-02-22T11:20:29.465Z,13.60
2023-02-22T11:23:01.028Z,13.70
2023-02-22T11:25:40.433Z,13.70
2023-02-22T11:28:17.780Z,13.70
2023-02-22T11:30:52.561Z,13.80
2023-02-22T11:33:22.519Z,13.80
2023-02-22T11:36:06.443Z,13.90
2023-02-22T11:38:35.363Z,14.00
2023-02-22T11:41:26.512Z,14.00
2023-02-22T11:44:00.404Z,13.90
2023-02-22T11:46:35.047Z,13.90
2023-02-22T11:49:17.454Z,13.90
2023-02-22T11:52:02.764Z,14.00
2023-02-22T11:54:57.443Z,13.90
2023-02-22T11:57:53.523Z,14.00
2023-02-22T12:00:44.465Z,14.00
2023-02-22T12:03:52.502Z,14.10
2023-02-22T12:07:14.756Z,14.20
2023-02-22T12:10:45.518Z,14.20
2023-02-22T12:13:47.190Z,14.20
2023-02-22T12:16:29.425Z,14.10
2023-02-22T12:19:22.037Z,14.20
2023-02-22T12:22:02.445Z,14.30
2023-02-22T12:24:39.971Z,14.30
2023-02-22T12:27:32.540Z,14.30
2023-02-22T12:30:05.214Z,14.30
2023-02-22T12:32:46.510Z,14.20
2023-02-22T12:35:35.262Z,14.30
2023-02-22T12:38:30.439Z,14.20
2023-02-22T12:41:12.473Z,14.10
2023-02-22T12:43:54.323Z,14.00
2023-02-22T12:46:49.457Z,14.10
2023-02-22T12:49:47.852Z,14.10
2023-02-22T12:52:46.528Z,14.20
2023-02-22T12:55:37.001Z,14.00
2023-02-22T12:58:29.498Z,14.00
2023-02-22T13:01:01.941Z,14.00
2023-02-22T13:03:49.474Z,14.10
2023-02-22T13:06:50.191Z,14.20
2023-02-22T13:09:47.500Z,14.30
2023-02-22T13:12:23.401Z,14.50
2023-02-22T13:15:11.538Z,14.50
2023-02-22T13:18:18.464Z,14.60
2023-02-22T13:21:07.814Z,14.70
2023-02-22T13:23:49.017Z,14.80
2023-02-22T13:26:31.552Z,14.70
2023-02-22T13:29:03.300Z,14.90
2023-02-22T13:31:57.593Z,15.00
2023-02-22T13:35:02.071Z,15.20
2023-02-22T13:38:14.531Z,15.20
2023-02-22T13:40:56.573Z,15.10
2023-02-22T13:43:50.558Z,15.10
2023-02-22T13:46:48.557Z,15.20
2023-02-22T13:49:25.710Z,15.30
2023-02-22T13:52:01.501Z,15.30
2023-02-22T13:54:49.539Z,15.20
2023-02-22T13:57:45.534Z,15.20
2023-02-22T14:00:22.555Z,15.00
2023-02-22T14:03:14.623Z,14.90
2023-02-22T14:05:48.658Z,14.80
2023-02-22T14:08:25.529Z,14.90
2023-02-22T14:11:25.573Z,14.90
2023-02-22T14:14:02.496Z,14.90
2023-02-22T14:16:30.992Z,14.90
2023-02-22T14:19:27.534Z,15.00
2023-02-22T14:22:04.490Z,14.90
2023-02-22T14:24:54.557Z,14.90
2023-02-22T14:27:21.632Z,14.90
2023-02-22T14:30:03.503Z,15.00
2023-02-22T14:32:33.122Z,15.10
2023-02-22T14:35:27.319Z,14.90
2023-02-22T14:37:58.636Z,14.90
2023-02-22T14:40:40.517Z,15.10
2023-02-22T14:43:19.864Z,15.10
2023-02-22T14:46:01.580Z,15.10
2023-02-22T14:48:40.132Z,15.00
2023-02-22T14:51:40.557Z,14.90
2023-02-22T14:54:29.510Z,14.80
2023-02-22T14:57:32.517Z,14.80
2023-02-22T15:00:13.979Z,14.70
2023-02-22T15:02:47.593Z,14.70
2023-02-22T15:05:16.862Z,14.80
2023-02-22T15:08:02.573Z,14.80
2023-02-22T15:10:43.495Z,14.70
2023-02-22T15:13:32.492Z,14.60
2023-02-22T15:16:08.669Z,14.70
2023-02-22T15:18:46.609Z,14.70
2023-02-22T15:21:25.717Z,14.70
2023-02-22T15:23:54.437Z,14.70
2023-02-22T15:27:00.148Z,14.70
2023-02-22T15:29:53.601Z,14.70
2023-02-22T15:32:27.247Z,14.70
2023-02-22T15:35:00.574Z,14.70
2023-02-22T15:37:27.676Z,14.70
2023-02-22T15:40:12.640Z,14.60
2023-02-22T15:42:50.880Z,14.60
2023-02-22T15:45:26.603Z,14.40
2023-02-22T15:47:54.089Z,14.30
2023-02-22T15:50:40.665Z,14.30
2023-02-22T15:53:22.751Z,14.20
2023-02-22T15:56:01.566Z,14.10
2023-02-22T15:58:28.688Z,14.00
2023-02-22T16:01:25.618Z,13.90
2023-02-22T16:03:55.694Z,14.00
2023-02-22T16:06:44.612Z,14.10
2023-02-22T16:09:24.802Z,14.20
2023-02-22T16:12:13.617Z,14.10
2023-02-22T16:14:41.729Z,14.00
2023-02-22T16:17:28.680Z,14.10
2023-02-22T16:20:02.623Z,14.20
2023-02-22T16:22:31.546Z,14.20
2023-02-22T16:25:24.620Z,14.20
2023-02-22T16:28:02.635Z,14.10
2023-02-22T16:30:37.722Z,14.20
2023-02-22T16:33:09.829Z,14.20
2023-02-22T16:35:36.851Z,14.10
2023-02-22T16:38:13.625Z,14.10
2023-02-22T16:40:50.812Z,14.20
2023-02-22T16:43:21.036Z,14.20
2023-02-22T16:45:54.820Z,14.20
2023-02-22T16:48:26.686Z,14.20
2023-02-22T16:51:01.609Z,14.20
2023-02-22T16:53:30.855Z,14.20
2023-02-22T16:56:08.614Z,14.00
2023-02-22T16:58:40.212Z,14.00
2023-02-22T17:01:13.771Z,13.90
2023-02-22T17:03:40.881Z,13.90
2023-02-22T17:06:08.073Z,13.80
2023-02-22T17:08:41.605Z,13.90
2023-02-22T17:11:16.649Z,13.80
2023-02-22T17:13:43.586Z,13.70
2023-02-22T17:16:14.746Z,13.70
2023-02-22T17:18:48.678Z,13.60
2023-02-22T17:21:15.657Z,13.60
2023-02-22T17:23:49.640Z,13.50
2023-02-22T17:26:17.162Z,13.50
2023-02-22T17:28:44.388Z,13.50
2023-02-22T17:31:27.758Z,13.50
2023-02-22T17:34:00.270Z,13.50
2023-02-22T17:36:27.402Z,13.40
2023-02-22T17:39:01.654Z,13.30
2023-02-22T17:41:28.795Z,13.30
2023-02-22T17:44:02.736Z,13.30
2023-02-22T17:46:29.959Z,13.30
2023-02-22T17:49:03.678Z,13.30
2023-02-22T17:51:37.635Z,13.20
2023-02-22T17:54:11.708Z,13.20
2023-02-22T17:56:38.854Z,13.40
2023-02-22T17:59:12.645Z,13.40
2023-02-22T18:01:39.880Z,13.50
2023-02-22T18:04:13.650Z,13.50
2023-02-22T18:06:40.677Z,13.40
2023-02-22T18:09:07.638Z,13.30
2023-02-22T18:11:41.712Z,13.20
2023-02-22T18:14:10.098Z,13.10
2023-02-22T18:16:43.814Z,13.00
2023-02-22T18:19:10.878Z,13.00
2023-02-22T18:21:38.723Z,13.00
2023-02-22T18:24:12.655Z,13.00
2023-02-22T18:26:39.709Z,12.90
2023-02-22T18:29:13.719Z,12.90
2023-02-22T18:31:44.122Z,12.90
2023-02-22T18:34:17.766Z,12.90
2023-02-22T18:36:44.792Z,12.90
2023-02-22T18:39:18.835Z,12.80
2023-02-22T18:41:46.336Z,12.70
2023-02-22T18:44:19.674Z,12.60
2023-02-22T18:46:46.721Z,12.70
2023-02-22T18:49:13.900Z,12.70
2023-02-22T18:51:47.737Z,12.70
2023-02-22T18:54:14.778Z,12.60
2023-02-22T18:56:48.741Z,12.70
2023-02-22T18:59:16.472Z,12.60
2023-02-22T19:01:43.771Z,12.50
2023-02-22T19:04:17.767Z,12.40
2023-02-22T19:06:44.749Z,12.40
2023-02-22T19:09:18.696Z,12.40
2023-02-22T19:11:45.820Z,12.40
2023-02-22T19:14:19.657Z,12.40
2023-02-22T19:16:48.855Z,12.30
2023-02-22T19:19:24.862Z,12.50
2023-02-22T19:21:53.532Z,12.60
2023-02-22T19:24:27.131Z,12.60
2023-02-22T19:26:54.240Z,12.60
2023-02-22T19:29:21.244Z,12.50
2023-02-22T19:31:54.840Z,12.50
2023-02-22T19:34:21.959Z,12.50
2023-02-22T19:36:55.769Z,12.50
2023-02-22T19:41:50.785Z,12.50
2023-02-22T19:44:24.708Z,12.40
2023-02-22T19:46:52.038Z,12.40
2023-02-22T19:51:52.809Z,12.30
2023-02-22T19:54:19.833Z,12.20
2023-02-22T19:56:53.708Z,12.20
2023-02-22T19:59:27.772Z,12.10
2023-02-22T20:01:55.424Z,12.10
2023-02-22T20:04:28.862Z,12.10
2023-02-22T20:06:56.056Z,12.00
2023-02-22T20:09:26.891Z,11.90
2023-02-22T20:12:00.798Z,12.00
2023-02-22T20:14:27.841Z,12.00
2023-02-22T20:16:55.632Z,11.90
2023-02-22T20:19:29.692Z,11.90
2023-02-22T20:21:56.738Z,11.90
2023-02-22T20:24:24.569Z,12.00
2023-02-22T20:26:58.768Z,11.90
2023-02-22T20:29:26.005Z,11.90
2023-02-22T20:31:59.812Z,11.90
2023-02-22T20:34:27.094Z,11.90
2023-02-22T20:37:00.772Z,11.90
2023-02-22T20:39:27.980Z,12.00
2023-02-22T20:41:55.027Z,12.10
2023-02-22T20:44:28.779Z,12.10
2023-02-22T20:46:55.772Z,12.10
2023-02-22T20:49:22.740Z,12.10
2023-02-22T20:51:56.780Z,11.90
2023-02-22T20:54:23.884Z,11.80
2023-02-22T20:56:52.863Z,11.70
2023-02-22T20:59:26.826Z,11.70
2023-02-22T21:01:53.891Z,11.70
2023-02-22T21:04:27.893Z,11.60
2023-02-22T21:06:54.923Z,11.50
2023-02-22T21:09:22.018Z,11.50
2023-02-22T21:12:01.753Z,11.40
2023-02-22T21:14:28.818Z,11.40
2023-02-22T21:16:55.879Z,11.40
2023-02-22T21:19:29.777Z,11.40
2023-02-22T21:21:58.319Z,11.40
2023-02-22T21:24:33.569Z,11.50
2023-02-22T21:27:07.772Z,11.60
2023-02-22T21:29:34.890Z,11.60
2023-02-22T21:32:08.950Z,11.50
2023-02-22T21:34:36.488Z,11.60
2023-02-22T21:37:09.935Z,11.50
2023-02-22T21:39:36.993Z,11.40
2023-02-22T21:42:04.148Z,11.40
2023-02-22T21:44:37.793Z,11.30
2023-02-22T21:47:11.795Z,11.30
2023-02-22T21:49:45.784Z,11.30
2023-02-22T21:52:12.800Z,11.30
2023-02-22T21:54:46.814Z,11.40
2023-02-22T21:57:13.857Z,11.50
2023-02-22T21:59:47.839Z,11.40
2023-02-22T22:02:22.175Z,11.40
2023-02-22T22:04:49.405Z,11.40
2023-02-22T22:07:16.534Z,11.40
2023-02-22T22:09:49.836Z,11.40
2023-02-22T22:12:16.924Z,11.40
2023-02-22T22:14:50.784Z,11.40
2023-02-22T22:17:17.843Z,11.40
2023-02-22T22:19:51.818Z,11.50
2023-02-22T22:22:25.812Z,11.50
2023-02-22T22:24:53.007Z,11.70
2023-02-22T22:27:26.757Z,11.70
2023-02-22T22:29:53.901Z,11.60
2023-02-22T22:32:27.845Z,11.60
2023-02-22T22:34:55.028Z,11.60
2023-02-22T22:37:22.019Z,11.50
2023-02-22T22:39:55.852Z,11.40
2023-02-22T22:42:22.968Z,11.30
2023-02-22T22:44:56.846Z,11.10
2023-02-22T22:47:30.828Z,11.10
2023-02-22T22:49:58.072Z,11.10
2023-02-22T22:52:25.182Z,11.10
2023-02-22T22:54:58.833Z,11.20
2023-02-22T22:57:26.566Z,11.10
2023-02-22T22:59:53.739Z,11.10
2023-02-22T23:02:26.877Z,11.10
2023-02-22T23:04:53.987Z,11.10
2023-02-22T23:07:27.787Z,11.00
2023-02-22T23:10:00.916Z,10.90
2023-02-22T23:12:27.990Z,10.90
2023-02-22T23:15:01.811Z,10.80
2023-02-22T23:17:28.801Z,10.80
2023-02-22T23:20:02.908Z,10.80
2023-02-22T23:22:30.092Z,11.00
2023-02-22T23:24:57.154Z,11.00
2023-02-22T23:27:30.844Z,11.00
2023-02-22T23:29:57.839Z,11.00
2023-02-22T23:32:31.855Z,11.00
2023-02-22T23:35:00.404Z,11.10
2023-02-22T23:37:27.466Z,11.20
2023-02-22T23:40:00.814Z,11.30
2023-02-22T23:42:27.880Z,11.40
2023-02-22T23:44:54.951Z,11.50
2023-02-22T23:47:28.804Z,11.50
2023-02-22T23:49:55.798Z,11.50
2023-02-22T23:52:22.824Z,11.50
2023-02-22T23:54:56.886Z,11.50
2023-02-22T23:57:23.836Z,11.50
2023-02-22T23:59:56.869Z,11.50
